Terminal Aerodrome Forecast
Issued by NWS

Current Version | Previous Version | Graphics & Text | Print | Product List | Glossary On
Versions: 1 2 3 4 5 6 7 8 9 10 11 12 13 14 15 16 17 18 19 20 21 22 23 24 25 26
000
FTUS41 KILN 300500 RRA
TAFLUK
TAF
KLUK 300541Z 3006/3106 30006KT P6SM BKN027 OVC035
     FM300800 31004KT P6SM OVC035
     FM301500 33013KT P6SM OVC018
     FM302200 35004KT P6SM SCT250
     FM310100 00000KT P6SM SKC=

USA.gov is the U.S. government's official web portal to all federal, state and local government web resources and services.